Time;durP1;ratioP1;P1;durP2;ratioP2;P2;SDS_P1;SDS_P2;PMS_P1;PMS_P2;Temp;Humidity;BMP_temperature;BMP_pressure;BME280_temperature;BME280_humidity;BME280_pressure;Samples;Min_cycle;Max_cycle;Signal;HPM_P1;HPM_P2
2022/01/15 00:01:35;;;;;;;3.57;1.60;;;2.70;99.90;;;;;;4994715;28;20666;-68
2022/01/15 00:04:02;;;;;;;4.40;1.50;;;2.70;99.90;;;;;;4994932;28;20671;-67
2022/01/15 00:19:47;;;;;;;3.57;1.63;;;2.70;99.90;;;;;;5129666;27;20539;-64
2022/01/15 00:22:15;;;;;;;3.67;1.53;;;2.80;99.90;;;;;;5129872;27;20239;-63
2022/01/15 00:24:42;;;;;;;4.83;1.70;;;2.80;99.90;;;;;;5130016;28;20206;-63
2022/01/15 00:27:10;;;;;;;4.27;1.63;;;2.70;99.90;;;;;;5129580;28;20206;-64
2022/01/15 00:29:37;;;;;;;7.30;1.80;;;2.70;99.90;;;;;;5130309;27;20213;-63
2022/01/15 00:32:06;;;;;;;8.23;1.80;;;2.70;99.90;;;;;;5129729;28;20205;-66
2022/01/15 00:34:33;;;;;;;5.43;2.23;;;2.60;99.90;;;;;;5124974;28;20202;-65
2022/01/15 00:37:01;;;;;;;6.80;1.93;;;2.60;99.90;;;;;;5128757;28;20214;-65
2022/01/15 00:39:28;;;;;;;4.33;1.80;;;2.60;99.90;;;;;;5137554;27;20226;-64
2022/01/15 00:41:55;;;;;;;3.67;1.77;;;2.60;99.90;;;;;;5128691;27;20291;-63
2022/01/15 00:44:22;;;;;;;4.57;2.00;;;2.60;99.90;;;;;;5124297;27;20290;-63
2022/01/15 00:46:48;;;;;;;4.47;1.63;;;2.60;99.90;;;;;;5129616;27;20199;-63
2022/01/15 00:49:15;;;;;;;4.67;1.63;;;2.60;99.90;;;;;;5130162;27;20710;-64
2022/01/15 00:51:42;;;;;;;4.87;1.97;;;2.60;99.90;;;;;;5146523;27;20567;-64
2022/01/15 00:54:10;;;;;;;5.47;1.83;;;2.60;99.90;;;;;;5129392;27;20562;-64
2022/01/15 00:56:37;;;;;;;3.50;1.80;;;2.60;99.90;;;;;;5131427;27;20281;-64
2022/01/15 00:59:04;;;;;;;3.97;1.67;;;2.60;99.90;;;;;;5127732;27;20191;-63
2022/01/15 01:01:31;;;;;;;10.87;2.30;;;2.60;99.90;;;;;;5123449;27;20234;-63
2022/01/15 01:03:58;;;;;;;4.57;1.60;;;2.60;99.90;;;;;;5112374;27;20203;-64
2022/01/15 01:06:25;;;;;;;6.67;1.73;;;2.60;99.90;;;;;;5111725;28;20202;-65
2022/01/15 01:08:51;;;;;;;2.43;1.70;;;2.60;99.90;;;;;;5129187;27;20219;-63
2022/01/15 01:11:29;;;;;;;5.33;1.73;;;2.60;99.90;;;;;;5128956;27;20206;-63
2022/01/15 01:24:52;;;;;;;6.20;1.50;;;2.60;99.90;;;;;;5094822;28;20219;-65
2022/01/15 01:27:25;;;;;;;5.67;1.90;;;2.60;99.90;;;;;;5094292;28;20207;-64
2022/01/15 01:30:09;;;;;;;6.10;1.80;;;2.50;99.90;;;;;;5094770;28;20245;-63
2022/01/15 01:32:47;;;;;;;4.87;1.93;;;2.50;99.90;;;;;;5094446;28;20609;-65
2022/01/15 01:35:19;;;;;;;4.23;1.50;;;2.50;99.90;;;;;;5094509;28;20188;-65
2022/01/15 01:37:50;;;;;;;3.83;1.70;;;2.50;99.90;;;;;;5094568;28;20568;-65
2022/01/15 01:40:24;;;;;;;2.73;1.43;;;2.40;99.90;;;;;;5094428;28;20192;-65
2022/01/15 01:43:02;;;;;;;8.83;1.90;;;2.40;99.90;;;;;;5094527;28;20279;-64
2022/01/15 01:45:29;;;;;;;4.47;1.77;;;2.40;99.90;;;;;;5094391;28;20188;-63
2022/01/15 01:47:56;;;;;;;3.50;1.80;;;2.30;99.90;;;;;;5093809;28;20262;-65
2022/01/15 01:50:26;;;;;;;7.23;2.00;;;2.30;99.90;;;;;;5093714;28;20219;-63
2022/01/15 01:52:56;;;;;;;5.63;1.70;;;2.20;99.90;;;;;;5094292;28;20657;-64
2022/01/15 01:55:24;;;;;;;4.70;1.60;;;2.00;99.90;;;;;;5094288;28;20246;-64
2022/01/15 01:57:54;;;;;;;4.63;2.00;;;1.90;99.90;;;;;;5094038;28;20571;-64
2022/01/15 02:00:22;;;;;;;4.57;1.80;;;1.90;99.90;;;;;;5093922;28;20204;-65
2022/01/15 02:02:50;;;;;;;7.10;1.70;;;1.90;99.90;;;;;;5093862;28;20200;-63
2022/01/15 02:05:17;;;;;;;11.17;1.90;;;1.90;99.90;;;;;;5093591;28;20204;-65
2022/01/15 02:07:45;;;;;;;4.53;1.73;;;1.90;99.90;;;;;;5107576;27;20577;-63
2022/01/15 02:10:15;;;;;;;5.60;1.87;;;1.90;99.90;;;;;;5112081;28;20200;-63
2022/01/15 02:12:43;;;;;;;8.03;1.93;;;1.90;99.90;;;;;;5114324;28;20249;-66
2022/01/15 02:15:13;;;;;;;6.07;2.00;;;1.90;99.90;;;;;;5112197;28;20204;-65
2022/01/15 02:17:40;;;;;;;10.90;1.87;;;1.90;99.90;;;;;;5102910;27;20235;-65
2022/01/15 02:20:34;;;;;;;7.93;1.90;;;1.70;99.90;;;;;;5093525;28;20208;-63
2022/01/15 02:25:51;;;;;;;5.50;1.73;;;1.40;99.90;;;;;;5103161;28;20317;-66
2022/01/15 02:28:20;;;;;;;2.27;1.40;;;1.50;99.90;;;;;;5093222;28;20227;-65
2022/01/15 02:30:47;;;;;;;6.27;1.90;;;1.50;99.90;;;;;;5092499;28;20653;-63
2022/01/15 02:33:13;;;;;;;2.50;1.40;;;1.60;99.90;;;;;;5093325;28;20215;-64
2022/01/15 02:35:43;;;;;;;5.63;1.90;;;1.60;99.90;;;;;;5092994;28;20566;-64
2022/01/15 02:38:11;;;;;;;5.77;1.90;;;1.70;99.90;;;;;;5092877;28;20224;-64
2022/01/15 02:40:39;;;;;;;4.07;1.50;;;1.70;99.90;;;;;;5093246;28;20292;-65
2022/01/15 02:43:07;;;;;;;4.37;1.60;;;1.70;99.90;;;;;;5092592;28;20224;-64
2022/01/15 02:45:36;;;;;;;2.07;1.50;;;1.80;99.90;;;;;;5092962;28;20207;-65
2022/01/15 02:48:04;;;;;;;15.17;1.70;;;1.80;99.90;;;;;;5092360;28;20265;-64
2022/01/15 02:50:31;;;;;;;3.80;1.77;;;1.90;99.90;;;;;;5094312;28;20196;-64
2022/01/15 02:53:03;;;;;;;1.47;1.30;;;1.90;99.90;;;;;;5092558;28;20212;-62
2022/01/15 02:55:29;;;;;;;2.10;1.37;;;2.00;99.90;;;;;;5093107;28;20198;-64
2022/01/15 02:57:57;;;;;;;7.47;2.03;;;2.00;99.90;;;;;;5093014;28;20204;-64
2022/01/15 03:00:25;;;;;;;5.10;2.30;;;2.00;99.90;;;;;;5110273;28;20199;-62
2022/01/15 03:02:52;;;;;;;6.83;2.20;;;2.00;99.90;;;;;;5106409;28;20203;-65
2022/01/15 03:05:21;;;;;;;5.07;1.63;;;2.00;99.90;;;;;;5112556;28;20203;-64
2022/01/15 03:07:47;;;;;;;5.93;1.60;;;2.00;99.90;;;;;;5112848;28;20335;-63
2022/01/15 03:10:16;;;;;;;3.30;1.50;;;2.00;99.90;;;;;;5096835;28;20215;-63
2022/01/15 03:12:42;;;;;;;4.53;1.60;;;2.00;99.90;;;;;;5092727;28;20200;-63
2022/01/15 03:15:13;;;;;;;4.90;2.03;;;2.10;99.90;;;;;;5092476;28;20204;-62
2022/01/15 03:17:40;;;;;;;4.80;1.83;;;2.10;99.90;;;;;;5092549;28;20781;-64
2022/01/15 03:20:08;;;;;;;4.83;2.10;;;2.10;99.90;;;;;;5106754;28;20531;-62
2022/01/15 03:22:36;;;;;;;3.70;1.97;;;2.10;99.90;;;;;;5112941;28;20214;-64
2022/01/15 03:25:03;;;;;;;6.43;2.00;;;2.10;99.90;;;;;;5112759;28;20207;-63
2022/01/15 03:27:31;;;;;;;5.80;2.00;;;2.10;99.90;;;;;;5112507;28;20562;-62
2022/01/15 03:29:58;;;;;;;5.00;2.00;;;2.20;99.90;;;;;;5099265;28;20220;-64
2022/01/15 03:32:25;;;;;;;3.97;1.80;;;2.20;99.90;;;;;;5092134;28;20208;-63
2022/01/15 03:34:52;;;;;;;4.17;1.80;;;2.10;99.90;;;;;;5092218;28;20219;-64
2022/01/15 03:37:19;;;;;;;3.30;1.90;;;2.20;99.90;;;;;;5092912;28;20736;-63
2022/01/15 03:39:46;;;;;;;3.87;1.80;;;2.20;99.90;;;;;;5112444;28;20195;-62
2022/01/15 03:42:13;;;;;;;6.30;1.83;;;2.30;99.90;;;;;;5112433;28;20207;-63
2022/01/15 03:44:44;;;;;;;3.97;1.80;;;2.30;99.90;;;;;;5107534;28;20219;-62
2022/01/15 03:47:12;;;;;;;3.63;1.57;;;2.30;99.90;;;;;;5112254;28;20554;-65
2022/01/15 03:49:40;;;;;;;4.57;1.90;;;2.30;99.90;;;;;;5112098;28;20300;-65
2022/01/15 03:52:08;;;;;;;3.13;1.63;;;2.30;99.90;;;;;;5112185;28;20708;-61
2022/01/15 03:54:35;;;;;;;3.40;1.80;;;2.30;99.90;;;;;;5097024;28;20210;-63
2022/01/15 03:57:03;;;;;;;4.40;1.60;;;2.30;99.90;;;;;;5091590;28;20222;-63
2022/01/15 03:59:30;;;;;;;2.93;1.57;;;2.40;99.90;;;;;;5092127;28;20200;-64
2022/01/15 04:01:58;;;;;;;4.27;1.60;;;2.40;99.90;;;;;;5091566;28;20207;-63
2022/01/15 04:04:25;;;;;;;4.90;2.07;;;2.40;99.90;;;;;;5105261;28;20206;-63
2022/01/15 04:06:52;;;;;;;4.50;1.90;;;2.40;99.90;;;;;;5112179;28;20225;-63
2022/01/15 04:09:19;;;;;;;5.93;1.80;;;2.40;99.90;;;;;;5110250;28;20226;-65
2022/01/15 04:11:46;;;;;;;3.60;1.80;;;2.40;99.90;;;;;;5096850;28;20286;-63
2022/01/15 04:14:13;;;;;;;5.27;2.00;;;2.50;99.90;;;;;;5091797;28;20562;-64
2022/01/15 04:16:40;;;;;;;8.10;2.10;;;2.50;99.90;;;;;;5091807;28;20688;-62
2022/01/15 04:19:08;;;;;;;5.53;1.93;;;2.50;99.90;;;;;;5091406;28;20224;-63
2022/01/15 04:21:36;;;;;;;3.40;1.80;;;2.50;99.90;;;;;;5091900;28;20261;-64
2022/01/15 04:24:04;;;;;;;3.97;1.87;;;2.50;99.90;;;;;;5091531;28;20296;-64
2022/01/15 04:26:32;;;;;;;4.77;1.77;;;2.50;99.90;;;;;;5091699;28;20544;-65
2022/01/15 04:29:03;;;;;;;3.07;1.50;;;2.60;99.90;;;;;;5107684;28;20602;-66
2022/01/15 04:31:35;;;;;;;2.77;1.50;;;2.60;99.90;;;;;;5109511;28;20183;-64
2022/01/15 04:34:02;;;;;;;3.50;1.63;;;2.60;99.90;;;;;;5091700;28;20184;-64
2022/01/15 04:36:30;;;;;;;3.53;1.50;;;2.60;99.90;;;;;;5091646;28;20538;-63
2022/01/15 04:38:57;;;;;;;3.97;1.73;;;2.60;99.90;;;;;;5097083;28;20283;-65
2022/01/15 04:41:24;;;;;;;6.27;2.33;;;2.60;99.90;;;;;;5101518;28;20195;-63
2022/01/15 04:43:50;;;;;;;3.77;1.90;;;2.60;99.90;;;;;;5111176;28;20231;-62
2022/01/15 04:46:17;;;;;;;2.20;1.60;;;2.60;99.90;;;;;;5112037;28;20657;-65
2022/01/15 04:48:44;;;;;;;4.60;1.90;;;2.60;99.90;;;;;;5104107;28;20234;-64
2022/01/15 04:51:11;;;;;;;4.47;1.60;;;2.60;99.90;;;;;;5091534;28;20592;-63
2022/01/15 04:53:39;;;;;;;5.17;2.23;;;2.60;99.90;;;;;;5090979;28;20208;-63
2022/01/15 04:56:06;;;;;;;4.23;1.63;;;2.60;99.90;;;;;;5095143;28;20226;-65
2022/01/15 04:58:32;;;;;;;9.07;2.80;;;2.60;99.90;;;;;;5096568;28;20210;-66
2022/01/15 05:00:59;;;;;;;5.67;1.83;;;2.60;99.90;;;;;;5094934;28;20213;-65
2022/01/15 05:03:26;;;;;;;7.40;1.97;;;2.70;99.90;;;;;;5094874;28;20212;-64
2022/01/15 05:05:53;;;;;;;3.27;1.70;;;2.70;99.90;;;;;;5094823;28;20214;-64
2022/01/15 05:08:20;;;;;;;4.13;1.67;;;2.60;99.90;;;;;;5094811;28;20204;-63
2022/01/15 05:10:48;;;;;;;3.30;1.63;;;2.70;99.90;;;;;;5115238;28;20575;-65
2022/01/15 05:13:16;;;;;;;5.20;1.70;;;2.70;99.90;;;;;;5115086;28;20537;-65
2022/01/15 05:15:43;;;;;;;2.37;1.50;;;2.60;99.90;;;;;;5115040;28;20199;-63
2022/01/15 05:18:11;;;;;;;2.40;1.50;;;2.70;99.90;;;;;;5114816;28;20231;-63
2022/01/15 05:20:42;;;;;;;5.10;1.50;;;2.70;99.90;;;;;;5095321;28;20199;-63
2022/01/15 05:23:09;;;;;;;8.93;3.47;;;2.70;99.90;;;;;;5094909;28;20621;-65
2022/01/15 05:25:36;;;;;;;4.63;1.90;;;2.70;99.90;;;;;;5096909;28;20199;-64
2022/01/15 05:28:05;;;;;;;1.83;1.50;;;2.60;99.90;;;;;;5114562;28;20293;-65
2022/01/15 05:30:32;;;;;;;4.20;1.67;;;2.60;99.90;;;;;;5114224;28;20681;-65
2022/01/15 05:32:59;;;;;;;5.17;1.60;;;2.70;99.90;;;;;;5114945;28;20564;-64
2022/01/15 05:35:27;;;;;;;4.23;1.70;;;2.70;99.90;;;;;;5113643;28;20204;-64
2022/01/15 05:37:54;;;;;;;2.43;1.53;;;2.70;99.90;;;;;;5094461;28;20569;-63
2022/01/15 05:40:21;;;;;;;2.07;1.40;;;2.70;99.90;;;;;;5094478;28;20200;-63
2022/01/15 05:42:48;;;;;;;3.00;1.60;;;2.70;99.90;;;;;;5094025;28;20224;-63
2022/01/15 05:45:16;;;;;;;3.63;1.87;;;2.70;99.90;;;;;;5094153;28;20208;-63
2022/01/15 05:47:43;;;;;;;3.87;1.60;;;2.70;99.90;;;;;;5113539;28;20210;-65
2022/01/15 05:50:11;;;;;;;3.17;1.53;;;2.70;99.90;;;;;;5114466;28;20230;-63
2022/01/15 05:52:38;;;;;;;3.93;1.60;;;2.80;99.90;;;;;;5114221;27;20663;-64
2022/01/15 05:55:05;;;;;;;4.13;1.70;;;2.80;99.90;;;;;;5114259;28;20297;-63
2022/01/15 05:57:32;;;;;;;2.30;1.50;;;2.80;99.90;;;;;;5095851;28;20196;-66
2022/01/15 05:59:59;;;;;;;2.80;1.43;;;2.80;99.90;;;;;;5094205;28;20685;-67
2022/01/15 06:02:27;;;;;;;4.07;1.70;;;2.80;99.90;;;;;;5093444;28;20214;-62
2022/01/15 06:04:54;;;;;;;6.07;1.50;;;2.80;99.90;;;;;;5093876;28;20222;-64
2022/01/15 06:07:21;;;;;;;4.47;1.90;;;2.90;99.90;;;;;;5110065;28;20196;-65
2022/01/15 06:09:48;;;;;;;2.43;1.50;;;2.80;99.90;;;;;;5094487;28;20223;-64
2022/01/15 06:12:14;;;;;;;4.33;1.80;;;2.90;99.90;;;;;;5093848;28;20200;-65
2022/01/15 06:14:41;;;;;;;3.30;2.00;;;2.90;99.90;;;;;;5093595;28;20210;-63
2022/01/15 06:17:09;;;;;;;2.73;1.53;;;2.90;99.90;;;;;;5094061;28;20203;-64
2022/01/15 06:19:37;;;;;;;3.27;1.70;;;2.90;99.90;;;;;;5095044;28;20227;-63
2022/01/15 06:22:04;;;;;;;3.23;1.50;;;2.90;99.90;;;;;;5113897;28;20199;-65
2022/01/15 06:24:31;;;;;;;6.63;1.80;;;2.90;99.90;;;;;;5113425;28;20533;-63
2022/01/15 06:26:58;;;;;;;4.10;1.63;;;2.90;99.90;;;;;;5096470;28;20206;-64
2022/01/15 06:29:25;;;;;;;2.40;1.40;;;3.00;99.90;;;;;;5092902;28;20231;-64
2022/01/15 06:31:52;;;;;;;4.30;1.60;;;3.00;99.90;;;;;;5093003;28;20294;-64
2022/01/15 06:34:19;;;;;;;1.83;1.40;;;3.00;99.90;;;;;;5107831;28;20219;-63
2022/01/15 06:36:48;;;;;;;6.10;1.70;;;3.00;99.90;;;;;;5099115;28;20208;-62
2022/01/15 06:39:14;;;;;;;4.53;1.87;;;3.00;99.90;;;;;;5093295;28;20199;-64
2022/01/15 06:41:41;;;;;;;2.87;1.80;;;3.00;99.90;;;;;;5111551;28;20206;-64
2022/01/15 06:44:08;;;;;;;4.90;1.70;;;3.00;99.90;;;;;;5113513;28;20230;-65
2022/01/15 06:46:35;;;;;;;2.13;1.50;;;3.00;99.90;;;;;;5113286;28;20743;-63
2022/01/15 06:49:02;;;;;;;1.80;1.33;;;3.00;99.90;;;;;;5113455;28;20203;-67
2022/01/15 06:51:28;;;;;;;4.43;1.40;;;3.00;99.90;;;;;;5096534;28;20203;-64
2022/01/15 06:53:56;;;;;;;4.20;1.40;;;3.10;99.90;;;;;;5111765;28;20202;-65
2022/01/15 06:56:23;;;;;;;2.50;1.57;;;3.10;99.90;;;;;;5112761;28;20203;-64
2022/01/15 06:58:50;;;;;;;4.70;1.50;;;3.10;99.90;;;;;;5113427;28;20199;-63
2022/01/15 07:01:17;;;;;;;7.87;3.87;;;3.10;99.90;;;;;;5094206;28;20200;-64
2022/01/15 07:03:43;;;;;;;2.67;1.70;;;3.10;99.90;;;;;;5094338;28;20196;-65
2022/01/15 07:06:10;;;;;;;2.33;1.50;;;3.10;99.90;;;;;;5092777;28;20734;-65
2022/01/15 07:08:37;;;;;;;6.07;2.00;;;3.00;99.90;;;;;;5092227;28;20212;-64
2022/01/15 07:11:05;;;;;;;3.40;1.50;;;3.00;99.90;;;;;;5106688;28;20223;-65
2022/01/15 07:13:33;;;;;;;2.43;1.60;;;3.00;99.90;;;;;;5112532;28;20661;-65
2022/01/15 07:16:00;;;;;;;3.30;1.50;;;3.00;99.90;;;;;;5113183;28;20203;-65
2022/01/15 07:18:27;;;;;;;3.37;1.60;;;3.10;99.90;;;;;;5111919;28;20231;-64
2022/01/15 07:20:54;;;;;;;3.07;1.50;;;3.10;99.90;;;;;;5102194;28;20202;-64
2022/01/15 07:23:21;;;;;;;2.87;1.50;;;3.10;99.90;;;;;;5092252;28;20204;-68
2022/01/15 07:25:48;;;;;;;3.63;1.60;;;3.10;99.90;;;;;;5092657;28;20563;-64
2022/01/15 07:28:27;;;;;;;4.10;1.60;;;3.10;99.90;;;;;;5094028;28;20210;-65
2022/01/15 07:42:40;;;;;;;5.63;1.70;;;3.00;99.90;;;;;;5065190;28;20541;-67
2022/01/15 07:45:10;;;;;;;2.20;1.57;;;3.30;99.90;;;;;;5064583;28;20269;-66
2022/01/15 07:47:37;;;;;;;3.60;1.80;;;3.30;99.90;;;;;;5065279;28;20209;-67
2022/01/15 07:50:05;;;;;;;3.37;1.80;;;3.30;99.90;;;;;;5065305;28;20658;-66
2022/01/15 07:52:32;;;;;;;2.50;1.50;;;3.30;99.90;;;;;;5065503;27;20205;-65
2022/01/15 07:55:00;;;;;;;1.90;1.43;;;3.30;99.90;;;;;;5053468;28;20208;-68
2022/01/15 07:57:27;;;;;;;4.67;1.83;;;3.30;99.90;;;;;;5045498;28;20314;-66
2022/01/15 07:59:56;;;;;;;5.83;2.00;;;3.30;99.90;;;;;;5045244;28;20213;-69
2022/01/15 08:02:23;;;;;;;5.50;2.40;;;3.30;99.90;;;;;;5045051;28;20209;-67
2022/01/15 08:04:49;;;;;;;3.20;1.70;;;3.30;99.90;;;;;;5054640;28;20208;-68
2022/01/15 08:07:18;;;;;;;4.60;1.60;;;3.20;99.90;;;;;;5065143;28;20205;-67
2022/01/15 08:09:45;;;;;;;3.07;1.70;;;3.30;99.90;;;;;;5045669;28;20202;-67
2022/01/15 08:12:12;;;;;;;5.50;1.90;;;3.30;99.90;;;;;;5044957;28;20720;-67
2022/01/15 08:14:39;;;;;;;2.23;1.50;;;3.30;99.90;;;;;;5055034;28;20205;-67
2022/01/15 08:17:07;;;;;;;3.23;1.60;;;3.30;99.90;;;;;;5061647;28;20197;-66
2022/01/15 08:19:34;;;;;;;2.87;1.53;;;3.30;99.90;;;;;;5063890;28;20204;-67
2022/01/15 08:22:01;;;;;;;2.80;1.73;;;3.30;99.90;;;;;;5064067;28;20565;-65
2022/01/15 08:24:28;;;;;;;4.03;1.53;;;3.30;99.90;;;;;;5063610;27;20205;-66
2022/01/15 08:26:55;;;;;;;4.87;1.70;;;3.30;99.90;;;;;;5065064;28;20201;-68
2022/01/15 08:29:22;;;;;;;3.47;1.70;;;3.30;99.90;;;;;;5064473;28;20295;-67
2022/01/15 08:31:49;;;;;;;2.63;1.57;;;3.30;99.90;;;;;;5062156;28;20244;-69
2022/01/15 08:34:17;;;;;;;7.13;2.47;;;3.30;99.90;;;;;;5051582;28;20577;-67
2022/01/15 08:36:43;;;;;;;5.10;1.70;;;3.30;99.90;;;;;;5064481;28;20200;-68
2022/01/15 08:39:11;;;;;;;3.50;1.70;;;3.30;99.90;;;;;;5064187;28;20209;-68
2022/01/15 08:41:38;;;;;;;3.10;1.40;;;3.30;99.90;;;;;;5059077;28;20593;-69
2022/01/15 08:44:06;;;;;;;2.77;1.77;;;3.30;99.90;;;;;;5051097;28;20212;-66
2022/01/15 08:46:34;;;;;;;2.17;1.53;;;3.20;99.90;;;;;;5050940;28;20213;-68
2022/01/15 08:49:01;;;;;;;6.00;1.90;;;3.30;99.90;;;;;;5045856;28;20255;-67
2022/01/15 08:51:30;;;;;;;3.93;1.80;;;3.20;99.90;;;;;;5030865;28;20222;-68
2022/01/15 08:53:57;;;;;;;4.47;1.70;;;3.20;99.90;;;;;;5030624;28;20206;-68
2022/01/15 08:56:24;;;;;;;4.93;1.77;;;3.20;99.90;;;;;;5031258;28;20693;-68
2022/01/15 08:58:50;;;;;;;4.13;1.80;;;3.20;99.90;;;;;;5033129;28;20201;-70
2022/01/15 09:01:17;;;;;;;2.50;1.77;;;3.20;99.90;;;;;;5050907;28;20677;-70
2022/01/15 09:03:44;;;;;;;3.53;1.77;;;3.20;99.90;;;;;;5031530;28;20206;-68
2022/01/15 09:06:12;;;;;;;3.67;1.63;;;3.20;99.90;;;;;;5030889;28;20208;-67
2022/01/15 09:08:42;;;;;;;4.17;1.73;;;3.30;99.90;;;;;;5031143;28;20675;-67
2022/01/15 09:11:09;;;;;;;4.27;1.60;;;3.30;99.90;;;;;;5031179;28;20687;-70
2022/01/15 09:13:36;;;;;;;3.67;2.00;;;3.30;99.90;;;;;;5033413;28;20196;-67
2022/01/15 09:16:02;;;;;;;3.70;1.60;;;3.30;99.90;;;;;;5030638;28;20212;-70
2022/01/15 09:18:30;;;;;;;5.17;1.70;;;3.20;99.90;;;;;;5030966;28;20240;-69
2022/01/15 09:20:57;;;;;;;3.80;1.60;;;3.20;99.90;;;;;;5032127;28;20191;-68
2022/01/15 09:23:23;;;;;;;3.83;1.97;;;3.20;99.90;;;;;;5032397;28;20198;-67
2022/01/15 09:25:52;;;;;;;5.83;2.00;;;3.20;99.90;;;;;;5032658;28;20198;-68
2022/01/15 09:31:03;;;;;;;5.50;1.83;;;3.30;99.90;;;;;;5037277;28;20221;-68
2022/01/15 09:33:30;;;;;;;3.33;1.60;;;3.30;99.90;;;;;;5050155;28;20309;-67
2022/01/15 09:35:57;;;;;;;2.80;1.70;;;3.30;99.90;;;;;;5044316;28;20706;-68
2022/01/15 09:38:24;;;;;;;5.73;1.70;;;3.30;99.90;;;;;;5042525;28;20226;-66
2022/01/15 09:40:53;;;;;;;3.83;1.93;;;3.20;99.90;;;;;;5050453;28;20627;-70
2022/01/15 09:43:20;;;;;;;5.83;1.87;;;3.20;99.90;;;;;;5050752;28;20228;-69
2022/01/15 09:45:46;;;;;;;3.60;1.97;;;3.10;99.90;;;;;;5049358;28;20205;-66
2022/01/15 09:48:16;;;;;;;2.53;1.63;;;3.20;99.90;;;;;;5050203;28;20201;-69
2022/01/15 09:50:46;;;;;;;5.37;1.77;;;3.20;99.90;;;;;;5032097;28;20690;-67
2022/01/15 09:53:16;;;;;;;2.33;1.50;;;3.20;99.90;;;;;;5030057;28;20209;-69
2022/01/15 09:55:43;;;;;;;5.47;1.90;;;3.30;99.90;;;;;;5030747;28;20195;-69
2022/01/15 09:58:11;;;;;;;4.23;1.80;;;3.30;99.90;;;;;;5036798;28;20198;-67
2022/01/15 10:00:38;;;;;;;5.07;1.63;;;3.30;99.90;;;;;;5034222;28;20204;-68
2022/01/15 10:03:05;;;;;;;4.90;1.70;;;3.30;99.90;;;;;;5030949;28;20206;-69
2022/01/15 10:05:32;;;;;;;7.30;3.27;;;3.20;99.90;;;;;;5030216;28;20577;-70
2022/01/15 10:08:01;;;;;;;3.80;2.03;;;3.20;99.90;;;;;;5030013;28;20625;-66
2022/01/15 10:10:29;;;;;;;4.73;1.70;;;3.30;99.90;;;;;;5040900;28;20258;-66
2022/01/15 10:12:56;;;;;;;3.07;1.70;;;3.30;99.90;;;;;;5040493;28;20205;-68
2022/01/15 10:15:24;;;;;;;6.70;1.90;;;3.30;99.90;;;;;;5075022;27;20198;-66
2022/01/15 10:17:51;;;;;;;4.30;1.90;;;3.30;99.90;;;;;;5029075;28;20198;-69
2022/01/15 10:20:22;;;;;;;3.73;1.63;;;3.30;99.90;;;;;;5028943;28;20203;-68
2022/01/15 10:22:50;;;;;;;3.77;1.80;;;3.40;99.90;;;;;;5040784;28;20361;-69
2022/01/15 10:25:20;;;;;;;5.20;1.70;;;3.40;99.90;;;;;;5028705;28;20260;-70
2022/01/15 10:27:50;;;;;;;2.73;1.60;;;3.40;99.90;;;;;;5027284;28;20278;-68
2022/01/15 10:30:18;;;;;;;2.60;1.63;;;3.40;99.90;;;;;;5028961;28;20202;-70
2022/01/15 10:32:57;;;;;;;2.90;1.77;;;3.30;99.90;;;;;;5028872;28;20218;-68
2022/01/15 10:35:25;;;;;;;7.23;1.80;;;3.30;99.90;;;;;;5029280;28;20201;-68
2022/01/15 10:37:53;;;;;;;5.13;1.80;;;3.30;99.90;;;;;;5035499;27;20549;-69
2022/01/15 10:40:22;;;;;;;4.27;1.63;;;3.20;99.90;;;;;;5044046;27;20200;-69
2022/01/15 10:42:57;;;;;;;4.17;1.83;;;3.20;99.90;;;;;;5040036;28;20209;-69
2022/01/15 10:45:25;;;;;;;6.20;1.77;;;3.10;99.90;;;;;;5029819;28;20607;-69
2022/01/15 10:47:55;;;;;;;4.33;1.97;;;3.10;99.90;;;;;;5029707;28;20216;-69
2022/01/15 10:50:24;;;;;;;7.50;1.67;;;3.10;99.90;;;;;;5037143;28;20217;-67
2022/01/15 10:52:51;;;;;;;2.67;1.70;;;3.10;99.90;;;;;;5032813;28;20218;-69
2022/01/15 10:55:24;;;;;;;3.80;1.60;;;3.10;99.90;;;;;;5032833;28;20202;-68
2022/01/15 10:57:55;;;;;;;5.40;1.80;;;3.10;99.90;;;;;;5035470;28;20197;-68
2022/01/15 11:00:24;;;;;;;4.47;1.80;;;3.10;99.90;;;;;;5029361;28;20202;-68
2022/01/15 11:02:54;;;;;;;4.60;1.97;;;3.10;99.90;;;;;;5033849;27;20298;-68
2022/01/15 11:05:33;;;;;;;3.63;2.00;;;3.10;99.90;;;;;;5055450;27;20209;-68
2022/01/15 11:08:13;;;;;;;3.83;1.80;;;3.00;99.90;;;;;;5029016;28;20624;-67
2022/01/15 11:10:46;;;;;;;4.33;2.00;;;3.10;99.90;;;;;;5030193;28;20249;-68
2022/01/15 11:13:14;;;;;;;4.67;2.10;;;3.10;99.90;;;;;;5036013;28;20207;-68
2022/01/15 11:15:42;;;;;;;4.00;1.80;;;3.20;99.90;;;;;;5029287;28;20227;-70
2022/01/15 11:18:15;;;;;;;5.77;2.10;;;3.20;99.90;;;;;;5031729;28;20313;-71
2022/01/15 11:20:46;;;;;;;2.67;2.10;;;3.30;99.90;;;;;;5026543;28;20251;-68
2022/01/15 11:23:14;;;;;;;5.30;2.10;;;3.30;99.90;;;;;;5032527;28;20202;-70
2022/01/15 11:25:41;;;;;;;6.80;2.10;;;3.30;99.90;;;;;;5031228;28;20220;-69
2022/01/15 11:28:09;;;;;;;2.63;1.90;;;3.40;99.90;;;;;;5038000;28;20579;-70
2022/01/15 11:30:36;;;;;;;2.90;1.83;;;3.40;99.90;;;;;;5033860;28;20209;-69
2022/01/15 11:33:04;;;;;;;4.03;1.80;;;3.30;99.90;;;;;;5029459;28;20214;-70
2022/01/15 11:35:40;;;;;;;6.00;1.70;;;3.30;99.90;;;;;;5031518;28;20233;-71
2022/01/15 11:38:08;;;;;;;2.60;1.60;;;3.30;99.90;;;;;;5030009;28;20209;-71
2022/01/15 11:40:38;;;;;;;3.13;1.70;;;3.30;99.90;;;;;;5028764;28;20691;-71
2022/01/15 11:43:39;;;;;;;2.70;1.53;;;3.20;99.90;;;;;;5030294;28;20274;-70
2022/01/15 11:46:23;;;;;;;4.30;1.90;;;3.30;99.90;;;;;;4996104;28;20206;-69
2022/01/15 11:48:50;;;;;;;4.17;1.70;;;3.30;99.90;;;;;;5042378;28;20257;-73
2022/01/15 11:51:28;;;;;;;3.20;1.70;;;3.30;99.90;;;;;;5028058;28;20690;-69
2022/01/15 11:53:58;;;;;;;4.23;1.60;;;3.30;99.90;;;;;;5028903;28;20293;-70
2022/01/15 11:56:26;;;;;;;2.77;1.77;;;3.20;99.90;;;;;;5027662;28;20255;-70
2022/01/15 11:58:56;;;;;;;4.13;1.80;;;3.20;99.90;;;;;;5028623;28;20210;-68
2022/01/15 12:01:38;;;;;;;2.80;1.60;;;3.20;99.90;;;;;;5028638;28;20214;-70
2022/01/15 12:04:23;;;;;;;3.00;1.73;;;3.20;99.90;;;;;;5028909;28;20374;-71
2022/01/15 12:07:21;;;;;;;5.57;1.83;;;3.20;99.90;;;;;;5021792;28;20206;-71
2022/01/15 12:09:48;;;;;;;3.57;1.87;;;3.30;99.90;;;;;;5028332;28;20217;-70
2022/01/15 12:12:42;;;;;;;4.40;1.80;;;3.30;99.90;;;;;;5028694;28;20707;-70
2022/01/15 12:15:10;;;;;;;2.37;1.70;;;3.30;99.90;;;;;;5028465;28;20284;-69
2022/01/15 12:17:39;;;;;;;3.77;1.90;;;3.30;99.90;;;;;;5029945;28;20212;-70
2022/01/15 12:20:28;;;;;;;2.77;1.63;;;3.30;99.90;;;;;;5032222;28;20209;-71
2022/01/15 12:22:57;;;;;;;6.87;2.10;;;3.20;99.90;;;;;;5031570;28;20203;-71
2022/01/15 12:25:31;;;;;;;3.50;2.10;;;3.30;99.90;;;;;;5031989;28;20202;-70
2022/01/15 12:28:00;;;;;;;4.47;2.00;;;3.30;99.90;;;;;;5032024;28;20259;-70
2022/01/15 12:30:29;;;;;;;4.77;1.77;;;3.30;99.90;;;;;;5031833;28;20682;-70
2022/01/15 12:33:00;;;;;;;3.33;1.73;;;3.30;99.90;;;;;;5031838;28;20333;-70
2022/01/15 12:35:29;;;;;;;3.67;1.83;;;3.30;99.90;;;;;;5031197;28;20191;-71
2022/01/15 12:38:00;;;;;;;2.90;1.70;;;3.20;99.90;;;;;;5031741;28;20684;-71
2022/01/15 12:40:33;;;;;;;4.57;1.80;;;3.30;99.90;;;;;;5031367;28;20236;-70
2022/01/15 12:43:03;;;;;;;4.53;1.93;;;3.30;99.90;;;;;;5031478;28;20182;-69
2022/01/15 12:45:30;;;;;;;6.80;3.70;;;3.30;99.90;;;;;;5031623;28;20690;-69
2022/01/15 12:47:58;;;;;;;6.10;1.83;;;3.30;99.90;;;;;;5031542;28;20302;-71
2022/01/15 12:50:26;;;;;;;5.20;2.40;;;3.30;99.90;;;;;;5031269;28;20205;-70
2022/01/15 12:53:05;;;;;;;5.63;2.87;;;3.30;99.90;;;;;;5031503;28;20226;-69
2022/01/15 12:55:33;;;;;;;5.83;2.60;;;3.30;99.90;;;;;;5031449;28;20186;-70
2022/01/15 12:58:00;;;;;;;5.93;3.07;;;3.30;99.90;;;;;;5031416;28;20213;-71
2022/01/15 13:00:29;;;;;;;7.07;3.03;;;3.30;99.90;;;;;;5030888;28;20216;-69
2022/01/15 13:02:58;;;;;;;2.70;1.73;;;3.30;99.90;;;;;;5031141;28;20297;-70
2022/01/15 13:05:26;;;;;;;3.43;1.50;;;3.30;99.90;;;;;;5031107;28;20668;-71
2022/01/15 13:07:56;;;;;;;2.20;1.50;;;3.30;99.90;;;;;;5031000;28;20239;-70
2022/01/15 13:10:55;;;;;;;3.07;1.80;;;3.20;99.90;;;;;;5031296;28;20544;-68
2022/01/15 13:13:24;;;;;;;3.83;1.93;;;3.20;99.90;;;;;;5031099;28;20275;-70
2022/01/15 13:16:02;;;;;;;4.67;2.10;;;3.10;99.90;;;;;;5030985;28;20210;-70
2022/01/15 13:18:31;;;;;;;2.97;1.87;;;3.20;99.90;;;;;;5030953;28;20293;-70
2022/01/15 13:20:58;;;;;;;4.93;2.00;;;3.10;99.90;;;;;;5031214;28;20202;-71
2022/01/15 13:23:34;;;;;;;4.63;1.83;;;3.10;99.90;;;;;;5030998;28;20574;-71
2022/01/15 13:26:02;;;;;;;2.90;1.70;;;3.10;99.90;;;;;;5030730;28;20213;-69
2022/01/15 13:28:29;;;;;;;3.43;2.03;;;3.10;99.90;;;;;;5030537;28;20206;-71
2022/01/15 13:30:57;;;;;;;2.10;1.50;;;3.10;99.90;;;;;;5031083;28;20206;-69
2022/01/15 13:33:34;;;;;;;4.77;1.80;;;3.10;99.90;;;;;;5030783;28;20644;-70
2022/01/15 13:36:05;;;;;;;5.13;2.00;;;3.10;99.90;;;;;;5031151;28;20229;-70
2022/01/15 13:38:33;;;;;;;3.47;1.70;;;3.00;99.90;;;;;;5030756;28;20198;-71
2022/01/15 13:41:12;;;;;;;3.97;1.80;;;3.00;99.90;;;;;;5030634;28;20265;-70
2022/01/15 13:43:40;;;;;;;2.17;1.63;;;3.00;99.90;;;;;;5030742;28;20187;-71
2022/01/15 13:46:08;;;;;;;4.53;1.90;;;3.10;99.90;;;;;;5030717;28;20783;-71
2022/01/15 13:48:36;;;;;;;3.27;1.80;;;3.00;99.90;;;;;;5030228;28;20229;-69